createdAt,value
2018-03-31T00:00:09.815Z,8.00
2018-03-31T00:01:09.798Z,8.00
2018-03-31T00:02:09.774Z,8.00
2018-03-31T00:03:09.781Z,8.00
2018-03-31T00:04:09.743Z,8.00
2018-03-31T00:05:09.714Z,8.00
2018-03-31T00:06:09.698Z,8.00
2018-03-31T00:07:09.673Z,8.00
2018-03-31T00:08:09.653Z,8.00
2018-03-31T00:09:09.635Z,8.00
2018-03-31T00:10:09.615Z,8.00
2018-03-31T00:11:09.592Z,8.00
2018-03-31T00:12:09.580Z,8.00
2018-03-31T00:13:09.559Z,8.00
2018-03-31T00:14:09.536Z,8.00
2018-03-31T00:15:09.513Z,8.00
2018-03-31T00:16:09.674Z,8.00
2018-03-31T00:17:09.474Z,8.00
2018-03-31T00:18:09.452Z,8.00
2018-03-31T00:19:09.506Z,8.00
2018-03-31T00:20:09.413Z,8.00
2018-03-31T00:21:09.399Z,8.00
2018-03-31T00:22:09.373Z,8.00
2018-03-31T00:23:09.351Z,8.00
2018-03-31T00:24:09.339Z,8.00
2018-03-31T00:25:09.312Z,8.00
2018-03-31T00:26:09.292Z,8.00
2018-03-31T00:27:09.270Z,8.00
2018-03-31T00:28:09.256Z,8.00
2018-03-31T00:29:09.232Z,8.00
2018-03-31T00:30:09.213Z,8.00
2018-03-31T00:31:09.190Z,8.00
2018-03-31T00:32:09.175Z,8.00
2018-03-31T00:33:09.149Z,8.00
2018-03-31T00:34:09.130Z,8.00
2018-03-31T00:35:09.111Z,8.00
2018-03-31T00:36:09.098Z,8.00
2018-03-31T00:37:09.070Z,8.00
2018-03-31T00:38:09.050Z,8.00
2018-03-31T00:39:09.030Z,8.00
2018-03-31T00:40:09.011Z,8.00
2018-03-31T00:41:08.989Z,8.00
2018-03-31T00:42:08.989Z,8.00
2018-03-31T00:43:08.952Z,8.00
2018-03-31T00:44:08.932Z,8.00
2018-03-31T00:45:08.911Z,8.00
2018-03-31T00:46:08.902Z,8.00
2018-03-31T00:47:08.875Z,8.00
2018-03-31T00:48:08.859Z,8.00
2018-03-31T00:49:08.860Z,8.00
2018-03-31T00:50:08.810Z,8.00
2018-03-31T00:51:08.798Z,8.00
2018-03-31T00:52:08.779Z,8.00
2018-03-31T00:53:08.756Z,8.00
2018-03-31T00:54:08.734Z,8.00
2018-03-31T00:55:08.721Z,8.00
2018-03-31T00:56:08.692Z,8.00
2018-03-31T00:57:08.673Z,8.00
2018-03-31T00:58:08.654Z,8.00
2018-03-31T00:59:08.682Z,8.00
2018-03-31T01:00:08.616Z,8.00
2018-03-31T01:01:08.593Z,8.00
2018-03-31T01:02:08.572Z,8.00
2018-03-31T01:03:08.560Z,8.00
2018-03-31T01:04:08.533Z,8.00
2018-03-31T01:05:08.525Z,8.00
2018-03-31T01:06:08.497Z,8.00
2018-03-31T01:07:08.475Z,8.00
2018-03-31T01:08:08.464Z,8.00
2018-03-31T01:09:08.433Z,8.00
2018-03-31T01:10:08.428Z,8.00
2018-03-31T01:11:08.395Z,8.00
2018-03-31T01:12:08.376Z,8.00
2018-03-31T01:13:08.356Z,8.00
2018-03-31T01:14:08.336Z,8.00
2018-03-31T01:15:08.318Z,8.00
2018-03-31T01:16:08.295Z,8.00
2018-03-31T01:17:08.327Z,8.00
2018-03-31T01:18:08.262Z,8.00
2018-03-31T01:19:08.241Z,8.00
2018-03-31T01:20:08.218Z,8.00
2018-03-31T01:21:08.194Z,8.00
2018-03-31T01:22:08.175Z,8.00
2018-03-31T01:23:08.154Z,8.00
2018-03-31T01:24:08.129Z,8.00
2018-03-31T01:25:08.114Z,8.00
2018-03-31T01:26:08.094Z,8.00
2018-03-31T01:27:08.074Z,8.00
2018-03-31T01:28:08.055Z,8.00
2018-03-31T01:29:08.033Z,8.00
2018-03-31T01:30:08.013Z,8.00
2018-03-31T01:31:07.996Z,8.00
2018-03-31T01:32:07.990Z,8.00
2018-03-31T01:33:07.949Z,8.00
2018-03-31T01:34:07.929Z,8.00
2018-03-31T01:35:07.958Z,8.00
2018-03-31T01:36:07.899Z,8.00
2018-03-31T01:37:07.868Z,8.00
2018-03-31T01:38:07.849Z,8.00
2018-03-31T01:39:07.835Z,8.00
2018-03-31T01:40:07.804Z,8.00
2018-03-31T01:41:07.785Z,8.00
2018-03-31T01:42:07.772Z,8.00
2018-03-31T01:43:07.744Z,8.00
2018-03-31T01:44:07.725Z,8.00
2018-03-31T01:45:07.704Z,8.00
2018-03-31T01:46:07.692Z,8.00
2018-03-31T01:47:07.664Z,8.00
2018-03-31T01:48:07.644Z,8.00
2018-03-31T01:49:07.627Z,8.00
2018-03-31T01:50:07.601Z,8.00
2018-03-31T01:51:07.681Z,8.00
2018-03-31T01:52:07.561Z,8.00
2018-03-31T01:53:07.545Z,8.00
2018-03-31T01:54:07.557Z,8.00
2018-03-31T01:55:07.501Z,8.00
2018-03-31T01:56:07.481Z,8.00
2018-03-31T01:57:07.459Z,8.00
2018-03-31T01:58:07.441Z,8.00
2018-03-31T01:59:07.421Z,8.00
2018-03-31T02:00:07.402Z,8.00
2018-03-31T02:01:07.417Z,8.00
2018-03-31T02:02:07.355Z,8.00
2018-03-31T02:03:07.348Z,8.00
2018-03-31T02:04:07.315Z,8.00
2018-03-31T02:05:07.295Z,8.00
2018-03-31T02:06:07.275Z,8.00
2018-03-31T02:07:07.256Z,8.00
2018-03-31T02:08:07.233Z,8.00
2018-03-31T02:09:07.213Z,8.00
2018-03-31T02:10:07.192Z,8.00
2018-03-31T02:11:07.194Z,8.00
2018-03-31T02:12:07.159Z,8.00
2018-03-31T02:13:07.138Z,8.00
2018-03-31T02:14:07.111Z,8.00
2018-03-31T02:15:07.088Z,8.00
2018-03-31T02:16:07.065Z,8.00
2018-03-31T02:17:07.057Z,8.00
2018-03-31T02:18:07.034Z,8.00
2018-03-31T02:19:07.004Z,8.00
2018-03-31T02:20:06.980Z,8.00
2018-03-31T02:21:06.963Z,8.00
2018-03-31T02:22:06.942Z,8.00
2018-03-31T02:23:06.920Z,8.00
2018-03-31T02:24:06.911Z,8.00
2018-03-31T02:25:06.877Z,8.00
2018-03-31T02:26:06.857Z,8.00
2018-03-31T02:27:06.844Z,8.00
2018-03-31T02:28:06.816Z,8.00
2018-03-31T02:29:06.793Z,8.00
2018-03-31T02:30:06.773Z,8.00
2018-03-31T02:31:06.752Z,8.00
2018-03-31T02:32:06.730Z,8.00
2018-03-31T02:33:06.709Z,8.00
2018-03-31T02:34:06.686Z,8.00
2018-03-31T02:35:06.670Z,8.00
2018-03-31T02:36:06.646Z,8.00
2018-03-31T02:37:06.626Z,8.00
2018-03-31T02:38:06.600Z,8.00
2018-03-31T02:39:06.582Z,8.00
2018-03-31T02:40:06.559Z,8.00
2018-03-31T02:41:06.540Z,8.00
2018-03-31T02:42:06.519Z,8.00
2018-03-31T02:43:06.512Z,8.00
2018-03-31T02:44:06.483Z,8.00
2018-03-31T02:45:06.455Z,8.00
2018-03-31T02:46:06.537Z,8.00
2018-03-31T02:47:06.416Z,8.00
2018-03-31T02:48:06.394Z,8.00
2018-03-31T02:49:06.374Z,8.00
2018-03-31T02:50:06.351Z,8.00
2018-03-31T02:51:06.334Z,8.00
2018-03-31T02:52:06.308Z,8.00
2018-03-31T02:53:06.292Z,8.00
2018-03-31T02:54:06.278Z,8.00
2018-03-31T02:55:06.248Z,8.00
2018-03-31T02:56:06.239Z,8.00
2018-03-31T02:57:06.208Z,8.00
2018-03-31T02:58:06.189Z,8.00
2018-03-31T02:59:06.167Z,8.00
2018-03-31T03:00:06.145Z,8.00
2018-03-31T03:01:06.125Z,8.00
2018-03-31T03:02:06.104Z,8.00
2018-03-31T03:03:06.085Z,8.00
2018-03-31T03:04:06.059Z,8.00
2018-03-31T03:05:06.042Z,8.00
2018-03-31T03:06:06.022Z,8.00
2018-03-31T03:07:05.999Z,8.00
2018-03-31T03:08:05.975Z,8.00
2018-03-31T03:09:05.958Z,8.00
2018-03-31T03:10:05.935Z,8.00
2018-03-31T03:11:05.920Z,8.00
2018-03-31T03:12:05.892Z,8.00
2018-03-31T03:13:05.892Z,8.00
2018-03-31T03:14:05.859Z,8.00
2018-03-31T03:15:05.851Z,8.00
2018-03-31T03:16:05.917Z,8.00
2018-03-31T03:17:05.790Z,8.00
2018-03-31T03:18:05.776Z,8.00
2018-03-31T03:19:05.754Z,8.00
2018-03-31T03:20:05.745Z,8.00
2018-03-31T03:21:05.711Z,8.00
2018-03-31T03:22:05.690Z,8.00
2018-03-31T03:23:05.671Z,8.00
2018-03-31T03:24:05.644Z,8.00
2018-03-31T03:25:05.630Z,8.00
2018-03-31T03:26:05.605Z,8.00
2018-03-31T03:27:05.586Z,8.00
2018-03-31T03:28:05.567Z,8.00
2018-03-31T03:29:05.549Z,8.00
2018-03-31T03:30:05.523Z,8.00
2018-03-31T03:31:05.504Z,8.00
2018-03-31T03:32:05.481Z,8.00
2018-03-31T03:33:05.464Z,8.00
2018-03-31T03:34:05.442Z,8.00
2018-03-31T03:35:05.429Z,8.00
2018-03-31T03:36:05.404Z,8.00
2018-03-31T03:37:05.379Z,8.00
2018-03-31T03:38:05.361Z,8.00
2018-03-31T03:39:05.376Z,8.00
2018-03-31T03:40:05.319Z,8.00
2018-03-31T03:41:05.304Z,8.00
2018-03-31T03:42:05.279Z,8.00
2018-03-31T03:43:05.260Z,8.00
2018-03-31T03:44:05.238Z,8.00
2018-03-31T03:45:05.233Z,8.00
2018-03-31T03:46:05.199Z,8.00
2018-03-31T03:47:05.177Z,8.00
2018-03-31T03:48:05.153Z,8.00
2018-03-31T03:49:05.132Z,8.00
2018-03-31T03:50:05.115Z,8.00
2018-03-31T03:51:05.098Z,8.00
2018-03-31T03:52:05.069Z,8.00
2018-03-31T03:53:05.050Z,8.00
2018-03-31T03:54:05.119Z,8.00
2018-03-31T03:55:05.018Z,8.00
2018-03-31T03:56:04.989Z,8.00
2018-03-31T03:57:05.019Z,8.00
2018-03-31T03:58:04.954Z,8.00
2018-03-31T03:59:04.931Z,8.00
2018-03-31T04:00:04.916Z,8.00
2018-03-31T04:01:04.887Z,8.00
2018-03-31T04:02:04.966Z,8.00
2018-03-31T04:03:04.848Z,8.00
2018-03-31T04:04:04.826Z,8.00
2018-03-31T04:05:04.858Z,8.00
2018-03-31T04:06:04.796Z,8.00
2018-03-31T04:07:04.769Z,8.00
2018-03-31T04:08:04.746Z,8.00
2018-03-31T04:09:04.724Z,8.00
2018-03-31T04:10:04.708Z,8.00
2018-03-31T04:11:04.685Z,8.00
2018-03-31T04:12:04.664Z,8.00
2018-03-31T04:13:04.645Z,8.00
2018-03-31T04:14:04.625Z,8.00
2018-03-31T04:15:04.604Z,8.00
2018-03-31T04:16:04.583Z,8.00
2018-03-31T04:17:04.559Z,8.00
2018-03-31T04:18:04.539Z,8.00
2018-03-31T04:19:04.542Z,8.00
2018-03-31T04:20:04.496Z,8.00
2018-03-31T04:21:04.486Z,8.00
2018-03-31T04:22:04.458Z,8.00
2018-03-31T04:23:04.439Z,8.00
2018-03-31T04:24:04.426Z,8.00
2018-03-31T04:25:04.395Z,8.00
2018-03-31T04:26:04.375Z,8.00
2018-03-31T04:27:04.409Z,8.00
2018-03-31T04:28:04.337Z,8.00
2018-03-31T04:29:04.313Z,8.00
2018-03-31T04:30:04.294Z,8.00
2018-03-31T04:31:04.273Z,8.00
2018-03-31T04:32:04.252Z,8.00
2018-03-31T04:33:04.237Z,12.00
2018-03-31T04:34:04.222Z,8.00
2018-03-31T04:35:04.193Z,8.00
2018-03-31T04:36:04.171Z,8.00
2018-03-31T04:37:04.147Z,8.00
2018-03-31T04:38:04.128Z,12.00
2018-03-31T04:39:04.105Z,12.00
2018-03-31T04:40:04.086Z,12.00
2018-03-31T04:41:04.064Z,12.00
2018-03-31T04:42:04.044Z,12.00
2018-03-31T04:43:04.022Z,16.00
2018-03-31T04:44:04.003Z,16.00
2018-03-31T04:45:03.980Z,16.00
2018-03-31T04:46:03.970Z,20.00
2018-03-31T04:47:03.942Z,24.00
2018-03-31T04:48:03.928Z,24.00
2018-03-31T04:49:03.912Z,28.00
2018-03-31T04:50:03.892Z,32.00
2018-03-31T04:51:03.864Z,36.00
2018-03-31T04:52:03.837Z,40.00
2018-03-31T04:53:03.816Z,36.00
2018-03-31T04:54:03.883Z,44.00
2018-03-31T04:55:03.773Z,48.00
2018-03-31T04:56:03.753Z,56.00
2018-03-31T04:57:03.735Z,64.00
2018-03-31T04:58:03.712Z,72.00
2018-03-31T04:59:03.688Z,80.00
2018-03-31T05:00:03.670Z,88.00
2018-03-31T05:01:03.657Z,104.00
2018-03-31T05:02:03.625Z,112.00
2018-03-31T05:03:03.612Z,124.00
2018-03-31T05:04:03.586Z,140.00
2018-03-31T05:05:03.572Z,156.00
2018-03-31T05:06:03.552Z,168.00
2018-03-31T05:07:03.522Z,184.00
2018-03-31T05:08:03.498Z,200.00
2018-03-31T05:09:03.478Z,216.00
2018-03-31T05:10:03.459Z,236.00
2018-03-31T05:11:03.439Z,256.00
2018-03-31T05:12:03.417Z,276.00
2018-03-31T05:13:03.439Z,300.00
2018-03-31T05:14:03.377Z,328.00
2018-03-31T05:15:03.361Z,360.00
2018-03-31T05:16:03.333Z,392.00
2018-03-31T05:17:03.310Z,428.00
2018-03-31T05:18:03.300Z,468.00
2018-03-31T05:19:03.269Z,508.00
2018-03-31T05:20:03.246Z,548.00
2018-03-31T05:21:03.229Z,588.00
2018-03-31T05:22:03.208Z,632.00
2018-03-31T05:23:03.182Z,684.00
2018-03-31T05:24:03.162Z,736.00
2018-03-31T05:25:03.141Z,792.00
2018-03-31T05:26:03.121Z,848.00
2018-03-31T05:27:03.100Z,904.00
2018-03-31T05:28:03.075Z,964.00
2018-03-31T05:29:03.066Z,1020.00
2018-03-31T05:30:03.036Z,1080.00
2018-03-31T05:31:03.017Z,1144.00
2018-03-31T05:32:03.505Z,1200.00
2018-03-31T05:33:02.976Z,1268.00
2018-03-31T05:34:02.950Z,1332.00
2018-03-31T05:35:02.973Z,1404.00
2018-03-31T05:36:02.907Z,1480.00
2018-03-31T05:37:02.887Z,1556.00
2018-03-31T05:38:02.866Z,1628.00
2018-03-31T05:39:02.847Z,1704.00
2018-03-31T05:40:02.826Z,1776.00
2018-03-31T05:41:02.811Z,1856.00
2018-03-31T05:42:02.790Z,1932.00
2018-03-31T05:43:02.764Z,2004.00
2018-03-31T05:44:02.739Z,2072.00
2018-03-31T05:45:02.725Z,2144.00
2018-03-31T05:46:02.704Z,2216.00
2018-03-31T05:47:02.678Z,2292.00
2018-03-31T05:48:02.656Z,2372.00
2018-03-31T05:49:02.636Z,2452.00
2018-03-31T05:50:02.620Z,2536.00
2018-03-31T05:51:02.593Z,2624.00
2018-03-31T05:52:02.579Z,2720.00
2018-03-31T05:53:02.553Z,2828.00
2018-03-31T05:54:02.536Z,2940.00
2018-03-31T05:55:02.515Z,3056.00
2018-03-31T05:56:02.493Z,3168.00
2018-03-31T05:57:02.472Z,3272.00
2018-03-31T05:58:02.448Z,3364.00
2018-03-31T05:59:02.427Z,3468.00
2018-03-31T06:00:02.415Z,3580.00
2018-03-31T06:01:02.386Z,3704.00
2018-03-31T06:02:02.437Z,3836.00
2018-03-31T06:03:02.344Z,3956.00
2018-03-31T06:04:02.325Z,4076.00
2018-03-31T06:05:02.313Z,4196.00
2018-03-31T06:06:02.281Z,4340.00
2018-03-31T06:07:02.261Z,4504.00
2018-03-31T06:08:02.341Z,4716.00
2018-03-31T06:09:02.225Z,4920.00
2018-03-31T06:10:02.202Z,5104.00
2018-03-31T06:11:02.180Z,5292.00
2018-03-31T06:12:02.163Z,5476.00
2018-03-31T06:13:02.141Z,5668.00
2018-03-31T06:14:02.127Z,5856.00
2018-03-31T06:15:02.112Z,6080.00
2018-03-31T06:16:02.080Z,6356.00
2018-03-31T06:17:02.059Z,6528.00
2018-03-31T06:18:02.038Z,6640.00
2018-03-31T06:19:02.019Z,6740.00
2018-03-31T06:20:01.994Z,6824.00
2018-03-31T06:21:01.984Z,6868.00
2018-03-31T06:22:01.955Z,7104.00
2018-03-31T06:23:01.940Z,7452.00
2018-03-31T06:24:02.049Z,8108.00
2018-03-31T06:25:01.895Z,8816.00
2018-03-31T06:26:01.880Z,9192.00
2018-03-31T06:27:01.868Z,8852.00
2018-03-31T06:28:01.839Z,8308.00
2018-03-31T06:29:01.827Z,7920.00
2018-03-31T06:30:01.803Z,7600.00
2018-03-31T06:31:01.779Z,7540.00
2018-03-31T06:32:01.758Z,7620.00
2018-03-31T06:33:01.738Z,7684.00
2018-03-31T06:34:01.718Z,7720.00
2018-03-31T06:35:01.702Z,7800.00
2018-03-31T06:36:01.680Z,7976.00
2018-03-31T06:37:01.660Z,8188.00
2018-03-31T06:38:01.644Z,8280.00
2018-03-31T06:39:01.628Z,8428.00
2018-03-31T06:40:01.607Z,8576.00
2018-03-31T06:41:01.587Z,8628.00
2018-03-31T06:42:01.566Z,8704.00
2018-03-31T06:43:01.554Z,8840.00
2018-03-31T06:44:01.527Z,8940.00
2018-03-31T06:45:01.517Z,9028.00
2018-03-31T06:46:01.489Z,9220.00
2018-03-31T06:47:01.472Z,9560.00
2018-03-31T06:48:01.451Z,9596.00
2018-03-31T06:49:01.449Z,9420.00
2018-03-31T06:50:01.417Z,9368.00
2018-03-31T06:51:01.529Z,9156.00
2018-03-31T06:52:01.376Z,8524.00
2018-03-31T06:53:01.359Z,8400.00
2018-03-31T06:54:01.347Z,8216.00
2018-03-31T06:55:01.321Z,8476.00
2018-03-31T06:56:01.306Z,8964.00
2018-03-31T06:57:01.285Z,9196.00
2018-03-31T06:58:01.266Z,9572.00
2018-03-31T06:59:01.256Z,9740.00
2018-03-31T07:00:01.237Z,9752.00
2018-03-31T07:01:01.210Z,10080.00
2018-03-31T07:02:01.194Z,10416.00
2018-03-31T07:03:01.180Z,10640.00
2018-03-31T07:04:01.155Z,10736.00
2018-03-31T07:05:01.144Z,10712.00
2018-03-31T07:06:01.119Z,10860.00
2018-03-31T07:07:01.210Z,10840.00
2018-03-31T07:08:01.085Z,10376.00
2018-03-31T07:09:01.064Z,9832.00
2018-03-31T07:10:01.049Z,9748.00
2018-03-31T07:11:01.035Z,9788.00
2018-03-31T07:12:01.009Z,9280.00
2018-03-31T07:13:00.995Z,8668.00
2018-03-31T07:14:00.977Z,8772.00
2018-03-31T07:15:00.972Z,9060.00
2018-03-31T07:16:00.936Z,9568.00
2018-03-31T07:17:00.919Z,10112.00
2018-03-31T07:18:00.900Z,10132.00
2018-03-31T07:19:00.882Z,10128.00
2018-03-31T07:20:00.871Z,10784.00
2018-03-31T07:21:00.853Z,11180.00
2018-03-31T07:22:00.827Z,11736.00
2018-03-31T07:23:00.810Z,12220.00
2018-03-31T07:24:00.790Z,12220.00
2018-03-31T07:25:00.774Z,11568.00
2018-03-31T07:26:00.778Z,11516.00
2018-03-31T07:27:00.740Z,11640.00
2018-03-31T07:28:00.727Z,12016.00
2018-03-31T07:29:00.703Z,12052.00
2018-03-31T07:30:00.691Z,12268.00
2018-03-31T07:31:00.664Z,12072.00
2018-03-31T07:32:00.646Z,11896.00
2018-03-31T07:33:00.632Z,11816.00
2018-03-31T07:34:00.610Z,12132.00
2018-03-31T07:35:00.594Z,12360.00
2018-03-31T07:36:00.576Z,12676.00
2018-03-31T07:37:00.557Z,13228.00
2018-03-31T07:38:00.541Z,13384.00
2018-03-31T07:39:00.522Z,13432.00
2018-03-31T07:40:00.509Z,13708.00
2018-03-31T07:41:00.491Z,14132.00
2018-03-31T07:42:00.470Z,18848.00
2018-03-31T07:43:00.452Z,32544.00
2018-03-31T07:44:00.442Z,41312.00
2018-03-31T07:45:00.434Z,31232.00
2018-03-31T07:46:00.446Z,22048.00
2018-03-31T07:47:00.384Z,14536.00
2018-03-31T07:48:00.378Z,14152.00
2018-03-31T07:49:00.350Z,13824.00
2018-03-31T07:50:00.334Z,13956.00
2018-03-31T07:51:00.326Z,15348.00
2018-03-31T07:52:00.334Z,19296.00
2018-03-31T07:53:00.287Z,17568.00
2018-03-31T07:54:00.277Z,18496.00
2018-03-31T07:55:00.253Z,27392.00
2018-03-31T07:56:00.240Z,34176.00
2018-03-31T07:57:00.218Z,36160.00
2018-03-31T07:58:00.211Z,30816.00
2018-03-31T07:59:00.299Z,22912.00
2018-03-31T08:00:00.173Z,20000.00
2018-03-31T08:01:00.220Z,18816.00
2018-03-31T08:02:00.200Z,23008.00
2018-03-31T08:03:00.134Z,26720.00
2018-03-31T08:04:00.114Z,32384.00
2018-03-31T08:05:00.101Z,31136.00
2018-03-31T08:06:00.085Z,28704.00
2018-03-31T08:07:00.076Z,29056.00
2018-03-31T08:08:00.053Z,25248.00
2018-03-31T08:09:00.050Z,25920.00
2018-03-31T08:10:00.059Z,27584.00
2018-03-31T08:11:00.017Z,25504.00
2018-03-31T08:12:00.006Z,23008.00
2018-03-31T08:12:59.999Z,25952.00
2018-03-31T08:13:59.968Z,33024.00
2018-03-31T08:14:59.988Z,40864.00
2018-03-31T08:15:59.945Z,42784.00
2018-03-31T08:16:59.933Z,35808.00
2018-03-31T08:18:00.031Z,37856.00
2018-03-31T08:18:59.906Z,37056.00
2018-03-31T08:19:59.897Z,34848.00
2018-03-31T08:20:59.888Z,32160.00
2018-03-31T08:21:59.868Z,30880.00
2018-03-31T08:22:59.878Z,32512.00
2018-03-31T08:23:59.853Z,32992.00
2018-03-31T08:24:59.834Z,35360.00
2018-03-31T08:25:59.837Z,29312.00
2018-03-31T08:26:59.816Z,30080.00
2018-03-31T08:27:59.799Z,31744.00
2018-03-31T08:28:59.793Z,31360.00
2018-03-31T08:29:59.778Z,30080.00
2018-03-31T08:30:59.767Z,25312.00
2018-03-31T08:31:59.756Z,23328.00
2018-03-31T08:32:59.745Z,27392.00
2018-03-31T08:33:59.734Z,33024.00
2018-03-31T08:34:59.724Z,40288.00
2018-03-31T08:35:59.714Z,37728.00
2018-03-31T08:36:59.708Z,38688.00
2018-03-31T08:37:59.693Z,44512.00
2018-03-31T08:38:59.684Z,41152.00
2018-03-31T08:39:59.673Z,44000.00
2018-03-31T08:40:59.663Z,52608.00
2018-03-31T08:41:59.716Z,50624.00
2018-03-31T08:42:59.638Z,42752.00
2018-03-31T08:43:59.643Z,30080.00
2018-03-31T08:44:59.622Z,40096.00
2018-03-31T08:45:59.611Z,54112.00
2018-03-31T08:46:59.602Z,49856.00
2018-03-31T08:47:59.587Z,38784.00
2018-03-31T08:48:59.585Z,40256.00
2018-03-31T08:49:59.565Z,18368.00
2018-03-31T08:50:59.557Z,21024.00
2018-03-31T08:51:59.617Z,23904.00
2018-03-31T08:52:59.533Z,33792.00
2018-03-31T08:53:59.523Z,27360.00
2018-03-31T08:54:59.515Z,57440.00
2018-03-31T08:55:59.503Z,61632.00
2018-03-31T08:56:59.492Z,62080.00
2018-03-31T08:57:59.487Z,62400.00
2018-03-31T08:58:59.471Z,63904.00
2018-03-31T08:59:59.465Z,65120.00
2018-03-31T09:00:59.462Z,62464.00
2018-03-31T09:01:59.460Z,62848.00
2018-03-31T09:02:59.435Z,52064.00
2018-03-31T09:03:59.424Z,49984.00
2018-03-31T09:04:59.490Z,56320.00
2018-03-31T09:05:59.413Z,56512.00
2018-03-31T09:06:59.408Z,53440.00
2018-03-31T09:07:59.394Z,50880.00
2018-03-31T09:08:59.395Z,44608.00
2018-03-31T09:09:59.380Z,44160.00
2018-03-31T09:10:59.370Z,49312.00
2018-03-31T09:11:59.358Z,43424.00
2018-03-31T09:12:59.361Z,48608.00
2018-03-31T09:13:59.356Z,50976.00
2018-03-31T09:14:59.340Z,57888.00
2018-03-31T09:15:59.331Z,64672.00
2018-03-31T09:16:59.323Z,67456.00
2018-03-31T09:17:59.333Z,67968.00
2018-03-31T09:18:59.317Z,66880.00
2018-03-31T09:19:59.311Z,66496.00
2018-03-31T09:20:59.297Z,62880.00
2018-03-31T09:21:59.389Z,62400.00
2018-03-31T09:22:59.333Z,61760.00
2018-03-31T09:23:59.280Z,62560.00
2018-03-31T09:24:59.276Z,63328.00
2018-03-31T09:25:59.274Z,63488.00
2018-03-31T09:26:59.267Z,66560.00
2018-03-31T09:27:59.423Z,65472.00
2018-03-31T09:28:59.272Z,64032.00
2018-03-31T09:29:59.251Z,62240.00
2018-03-31T09:30:59.251Z,59104.00
2018-03-31T09:31:59.239Z,40352.00
2018-03-31T09:32:59.291Z,23648.00
2018-03-31T09:33:59.237Z,66208.00
2018-03-31T09:34:59.230Z,66816.00
2018-03-31T09:35:59.225Z,51008.00
2018-03-31T09:36:59.216Z,65600.00
2018-03-31T09:37:59.218Z,33120.00
2018-03-31T09:38:59.211Z,19712.00
2018-03-31T09:39:59.229Z,68896.00
2018-03-31T09:40:59.202Z,74912.00
2018-03-31T09:41:59.200Z,82304.00
2018-03-31T09:42:59.188Z,79264.00
2018-03-31T09:43:59.184Z,82272.00
2018-03-31T09:44:59.179Z,82912.00
2018-03-31T09:45:59.175Z,84640.00
2018-03-31T09:46:59.174Z,82112.00
2018-03-31T09:47:59.274Z,80096.00
2018-03-31T09:48:59.164Z,78912.00
2018-03-31T09:49:59.160Z,82816.00
2018-03-31T09:50:59.176Z,84960.00
2018-03-31T09:51:59.155Z,83872.00
2018-03-31T09:52:59.150Z,82912.00
2018-03-31T09:53:59.149Z,77408.00
2018-03-31T09:54:59.152Z,69088.00
2018-03-31T09:55:59.142Z,28896.00
2018-03-31T09:56:59.142Z,76480.00
2018-03-31T09:57:59.139Z,74720.00
2018-03-31T09:58:59.134Z,72096.00
2018-03-31T09:59:59.133Z,72192.00
2018-03-31T10:00:59.138Z,73440.00
2018-03-31T10:01:59.132Z,76448.00
2018-03-31T10:02:59.126Z,81056.00
2018-03-31T10:03:59.134Z,78784.00
2018-03-31T10:04:59.123Z,83872.00
2018-03-31T10:05:59.256Z,85504.00
2018-03-31T10:06:59.131Z,89248.00
2018-03-31T10:07:59.115Z,90208.00
2018-03-31T10:08:59.117Z,85568.00
2018-03-31T10:09:59.124Z,76832.00
2018-03-31T10:10:59.112Z,73696.00
2018-03-31T10:11:59.107Z,70240.00
2018-03-31T10:12:59.107Z,59200.00
2018-03-31T10:13:59.103Z,63392.00
2018-03-31T10:14:59.152Z,74944.00
2018-03-31T10:15:59.112Z,72608.00
2018-03-31T10:16:59.107Z,70880.00
2018-03-31T10:17:59.103Z,67648.00
2018-03-31T10:18:59.103Z,65344.00
2018-03-31T10:19:59.094Z,50720.00
2018-03-31T10:20:59.093Z,58368.00
2018-03-31T10:21:59.094Z,67904.00
2018-03-31T10:22:59.090Z,35840.00
2018-03-31T10:23:59.093Z,22048.00
2018-03-31T10:24:59.082Z,24416.00
2018-03-31T10:25:59.080Z,67616.00
2018-03-31T10:26:59.084Z,76800.00
2018-03-31T10:27:59.085Z,46720.00
2018-03-31T10:28:59.077Z,21984.00
2018-03-31T10:29:59.075Z,79104.00
2018-03-31T10:30:59.077Z,78688.00
2018-03-31T10:31:59.059Z,74272.00
2018-03-31T10:32:59.069Z,76832.00
2018-03-31T10:33:59.056Z,80512.00
2018-03-31T10:34:59.049Z,79296.00
2018-03-31T10:35:59.054Z,79136.00
2018-03-31T10:36:59.047Z,81632.00
2018-03-31T10:37:59.039Z,78912.00
2018-03-31T10:38:59.032Z,76384.00
2018-03-31T10:39:59.036Z,77568.00
2018-03-31T10:40:59.035Z,79904.00
2018-03-31T10:41:59.025Z,76224.00
2018-03-31T10:42:59.025Z,77216.00
2018-03-31T10:43:59.018Z,77216.00
2018-03-31T10:44:59.011Z,74048.00
2018-03-31T10:45:59.100Z,68832.00
2018-03-31T10:46:59.010Z,77056.00
2018-03-31T10:47:59.014Z,77920.00
2018-03-31T10:48:59.093Z,79360.00
2018-03-31T10:49:59.001Z,70080.00
2018-03-31T10:50:59.000Z,73248.00
2018-03-31T10:51:58.997Z,69824.00
2018-03-31T10:52:58.992Z,72416.00
2018-03-31T10:53:58.997Z,73600.00
2018-03-31T10:54:58.989Z,73440.00
2018-03-31T10:55:58.988Z,49888.00
2018-03-31T10:56:58.988Z,17856.00
2018-03-31T10:57:58.989Z,16416.00
2018-03-31T10:58:58.992Z,14428.00
2018-03-31T10:59:58.989Z,13764.00
2018-03-31T11:00:58.988Z,14464.00
2018-03-31T11:01:58.976Z,30368.00
2018-03-31T11:02:58.980Z,63584.00
2018-03-31T11:03:58.968Z,67840.00
2018-03-31T11:04:58.965Z,67936.00
2018-03-31T11:05:58.984Z,67840.00
2018-03-31T11:06:58.962Z,68960.00
2018-03-31T11:07:58.960Z,69152.00
2018-03-31T11:08:58.956Z,67808.00
2018-03-31T11:09:58.956Z,25888.00
2018-03-31T11:10:58.946Z,70464.00
2018-03-31T11:11:58.944Z,68576.00
2018-03-31T11:12:58.940Z,67904.00
2018-03-31T11:13:58.938Z,62816.00
2018-03-31T11:14:58.936Z,71488.00
2018-03-31T11:15:58.940Z,40288.00
2018-03-31T11:16:58.927Z,67232.00
2018-03-31T11:17:58.934Z,63136.00
2018-03-31T11:18:58.957Z,66560.00
2018-03-31T11:19:58.917Z,60832.00
2018-03-31T11:20:58.923Z,55200.00
2018-03-31T11:21:58.969Z,31744.00
2018-03-31T11:22:58.911Z,69376.00
2018-03-31T11:23:58.902Z,70816.00
2018-03-31T11:24:58.930Z,70400.00
2018-03-31T11:25:58.899Z,68064.00
2018-03-31T11:26:58.893Z,66432.00
2018-03-31T11:27:58.893Z,68672.00
2018-03-31T11:28:58.887Z,67616.00
2018-03-31T11:29:58.883Z,70208.00
2018-03-31T11:30:58.883Z,71200.00
2018-03-31T11:31:58.877Z,19008.00
2018-03-31T11:32:58.876Z,17408.00
2018-03-31T11:33:58.901Z,22656.00
2018-03-31T11:34:58.883Z,62944.00
2018-03-31T11:35:58.864Z,18816.00
2018-03-31T11:36:58.858Z,16584.00
2018-03-31T11:37:58.859Z,63424.00
2018-03-31T11:38:58.853Z,18816.00
2018-03-31T11:39:58.845Z,55520.00
2018-03-31T11:40:58.842Z,15732.00
2018-03-31T11:41:58.834Z,25280.00
2018-03-31T11:42:58.829Z,35680.00
2018-03-31T11:43:58.822Z,62944.00
2018-03-31T11:44:58.824Z,63296.00
2018-03-31T11:45:58.811Z,64672.00
2018-03-31T11:46:58.804Z,63232.00
2018-03-31T11:47:58.810Z,63264.00
2018-03-31T11:48:58.846Z,59008.00
2018-03-31T11:49:58.787Z,57824.00
2018-03-31T11:50:58.782Z,56064.00
2018-03-31T11:51:58.773Z,64192.00
2018-03-31T11:52:58.858Z,66208.00
2018-03-31T11:53:58.759Z,69088.00
2018-03-31T11:54:58.767Z,70240.00
2018-03-31T11:55:58.750Z,73888.00
2018-03-31T11:56:58.740Z,72704.00
2018-03-31T11:57:58.750Z,68896.00
2018-03-31T11:58:58.766Z,63776.00
2018-03-31T11:59:58.721Z,62592.00
2018-03-31T12:00:58.720Z,54720.00
2018-03-31T12:01:58.712Z,25152.00
2018-03-31T12:02:58.713Z,14852.00
2018-03-31T12:03:58.700Z,13508.00
2018-03-31T12:04:58.738Z,13012.00
2018-03-31T12:05:58.679Z,12488.00
2018-03-31T12:06:58.673Z,12232.00
2018-03-31T12:07:58.662Z,11924.00
2018-03-31T12:08:58.660Z,12248.00
2018-03-31T12:09:58.647Z,11388.00
2018-03-31T12:10:58.647Z,11688.00
2018-03-31T12:11:58.633Z,12540.00
2018-03-31T12:12:58.685Z,11496.00
2018-03-31T12:13:58.619Z,11700.00
2018-03-31T12:14:58.608Z,11132.00
2018-03-31T12:15:58.608Z,10976.00
2018-03-31T12:16:58.589Z,10728.00
2018-03-31T12:17:58.588Z,10692.00
2018-03-31T12:18:58.579Z,10844.00
2018-03-31T12:19:58.573Z,11164.00
2018-03-31T12:20:58.558Z,11364.00
2018-03-31T12:21:58.549Z,11268.00
2018-03-31T12:22:58.529Z,11156.00